sensor_id;sensor_type;location;lat;lon;timestamp;temperature;humidity
70734;DHT22;58320;48.804;9.252;2023-02-26T11:53:46;3.40;60.30
70734;DHT22;58320;48.804;9.252;2023-02-26T11:56:33;3.40;60.40
70734;DHT22;58320;48.804;9.252;2023-02-26T11:59:33;3.50;60.20
70734;DHT22;58320;48.804;9.252;2023-02-26T12:02:11;3.30;61.90
70734;DHT22;58320;48.804;9.252;2023-02-26T12:04:41;3.10;63.70
70734;DHT22;58320;48.804;9.252;2023-02-26T12:07:13;2.90;64.20
70734;DHT22;58320;48.804;9.252;2023-02-26T12:09:40;3.00;64.60
70734;DHT22;58320;48.804;9.252;2023-02-26T12:18:01;3.50;60.60
70734;DHT22;58320;48.804;9.252;2023-02-26T12:26:41;3.20;62.70
70734;DHT22;58320;48.804;9.252;2023-02-26T12:29:31;3.10;62.50
70734;DHT22;58320;48.804;9.252;2023-02-26T12:35:28;2.70;63.80
70734;DHT22;58320;48.804;9.252;2023-02-26T12:38:08;2.60;64.10
70734;DHT22;58320;48.804;9.252;2023-02-26T12:43:54;2.80;63.50
70734;DHT22;58320;48.804;9.252;2023-02-26T12:46:54;2.80;63.10
70734;DHT22;58320;48.804;9.252;2023-02-26T12:52:36;3.40;61.40
70734;DHT22;58320;48.804;9.252;2023-02-26T12:58:29;4.20;57.20
70734;DHT22;58320;48.804;9.252;2023-02-26T13:22:32;3.40;58.40
70734;DHT22;58320;48.804;9.252;2023-02-26T13:25:18;3.60;58.80
70734;DHT22;58320;48.804;9.252;2023-02-26T13:27:48;3.60;56.10
70734;DHT22;58320;48.804;9.252;2023-02-26T13:32:59;3.60;57.00
70734;DHT22;58320;48.804;9.252;2023-02-26T13:37:58;3.90;55.60
70734;DHT22;58320;48.804;9.252;2023-02-26T13:40:46;4.00;55.60
70734;DHT22;58320;48.804;9.252;2023-02-26T13:46:51;4.00;53.90
70734;DHT22;58320;48.804;9.252;2023-02-26T13:53:00;4.40;55.20
70734;DHT22;58320;48.804;9.252;2023-02-26T13:55:44;4.70;52.20
70734;DHT22;58320;48.804;9.252;2023-02-26T13:58:29;4.70;52.80
70734;DHT22;58320;48.804;9.252;2023-02-26T14:01:19;4.70;51.50
70734;DHT22;58320;48.804;9.252;2023-02-26T14:09:44;3.90;52.30
70734;DHT22;58320;48.804;9.252;2023-02-26T14:17:47;3.60;54.80
70734;DHT22;58320;48.804;9.252;2023-02-26T14:20:28;3.80;53.80
70734;DHT22;58320;48.804;9.252;2023-02-26T14:23:30;4.50;53.20
70734;DHT22;58320;48.804;9.252;2023-02-26T14:26:09;5.40;50.40
70734;DHT22;58320;48.804;9.252;2023-02-26T14:31:53;5.10;51.50
70734;DHT22;58320;48.804;9.252;2023-02-26T14:34:22;4.60;50.80
70734;DHT22;58320;48.804;9.252;2023-02-26T14:36:55;4.10;54.00
70734;DHT22;58320;48.804;9.252;2023-02-26T14:39:35;3.70;53.00
70734;DHT22;58320;48.804;9.252;2023-02-26T14:42:36;3.60;53.90
70734;DHT22;58320;48.804;9.252;2023-02-26T14:47:41;3.60;53.50
70734;DHT22;58320;48.804;9.252;2023-02-26T14:50:12;3.80;52.80
70734;DHT22;58320;48.804;9.252;2023-02-26T14:55:47;4.20;50.90
70734;DHT22;58320;48.804;9.252;2023-02-26T14:58:31;4.20;51.30
70734;DHT22;58320;48.804;9.252;2023-02-26T15:24:03;3.10;53.30
70734;DHT22;58320;48.804;9.252;2023-02-26T15:26:33;3.00;53.60
70734;DHT22;58320;48.804;9.252;2023-02-26T15:29:03;2.80;53.90
70734;DHT22;58320;48.804;9.252;2023-02-26T15:31:35;2.80;55.50
70734;DHT22;58320;48.804;9.252;2023-02-26T15:34:03;2.70;55.60
70734;DHT22;58320;48.804;9.252;2023-02-26T15:36:30;2.60;55.40
70734;DHT22;58320;48.804;9.252;2023-02-26T15:38:59;2.80;56.10
70734;DHT22;58320;48.804;9.252;2023-02-26T15:41:29;3.40;53.30
70734;DHT22;58320;48.804;9.252;2023-02-26T15:44:08;4.00;52.10
70734;DHT22;58320;48.804;9.252;2023-02-26T15:46:42;4.80;50.60
70734;DHT22;58320;48.804;9.252;2023-02-26T15:49:28;5.50;47.40
70734;DHT22;58320;48.804;9.252;2023-02-26T15:51:57;5.60;47.20
70734;DHT22;58320;48.804;9.252;2023-02-26T15:54:31;5.80;46.40
70734;DHT22;58320;48.804;9.252;2023-02-26T15:57:01;5.80;45.60
70734;DHT22;58320;48.804;9.252;2023-02-26T15:59:30;5.30;47.00
70734;DHT22;58320;48.804;9.252;2023-02-26T16:01:56;4.70;46.20
70734;DHT22;58320;48.804;9.252;2023-02-26T16:04:23;4.30;46.40
70734;DHT22;58320;48.804;9.252;2023-02-26T16:06:53;3.80;47.80
70734;DHT22;58320;48.804;9.252;2023-02-26T16:09:29;3.30;48.70
70734;DHT22;58320;48.804;9.252;2023-02-26T16:12:03;2.90;49.50
70734;DHT22;58320;48.804;9.252;2023-02-26T16:14:36;2.60;50.90
70734;DHT22;58320;48.804;9.252;2023-02-26T16:17:05;2.40;50.70
70734;DHT22;58320;48.804;9.252;2023-02-26T16:19:40;2.20;51.50
70734;DHT22;58320;48.804;9.252;2023-02-26T16:22:24;2.00;51.70
70734;DHT22;58320;48.804;9.252;2023-02-26T16:25:04;1.90;52.20
70734;DHT22;58320;48.804;9.252;2023-02-26T16:27:31;1.90;52.70
70734;DHT22;58320;48.804;9.252;2023-02-26T16:30:00;1.90;52.90
70734;DHT22;58320;48.804;9.252;2023-02-26T16:32:31;1.80;52.20
70734;DHT22;58320;48.804;9.252;2023-02-26T16:35:00;1.80;52.50
70734;DHT22;58320;48.804;9.252;2023-02-26T16:37:35;1.70;52.50
70734;DHT22;58320;48.804;9.252;2023-02-26T16:43:05;1.70;52.00
70734;DHT22;58320;48.804;9.252;2023-02-26T16:46:00;1.70;53.00
70734;DHT22;58320;48.804;9.252;2023-02-26T16:48:51;1.70;52.30
70734;DHT22;58320;48.804;9.252;2023-02-26T16:51:21;1.70;51.80
70734;DHT22;58320;48.804;9.252;2023-02-26T16:54:00;1.60;52.10
70734;DHT22;58320;48.804;9.252;2023-02-26T16:56:37;1.60;51.80
70734;DHT22;58320;48.804;9.252;2023-02-26T17:01:40;1.50;52.70
70734;DHT22;58320;48.804;9.252;2023-02-26T17:04:14;1.50;52.80
70734;DHT22;58320;48.804;9.252;2023-02-26T17:06:41;1.50;52.40
70734;DHT22;58320;48.804;9.252;2023-02-26T17:11:49;1.30;53.30
70734;DHT22;58320;48.804;9.252;2023-02-26T17:14:23;1.30;53.30
70734;DHT22;58320;48.804;9.252;2023-02-26T17:16:50;1.20;53.90
70734;DHT22;58320;48.804;9.252;2023-02-26T17:19:17;1.20;53.60
70734;DHT22;58320;48.804;9.252;2023-02-26T17:21:53;1.20;53.10
70734;DHT22;58320;48.804;9.252;2023-02-26T17:24:36;1.10;53.70
70734;DHT22;58320;48.804;9.252;2023-02-26T17:27:05;1.10;53.60
70734;DHT22;58320;48.804;9.252;2023-02-26T17:29:33;1.00;54.00
70734;DHT22;58320;48.804;9.252;2023-02-26T17:32:03;1.00;54.30
70734;DHT22;58320;48.804;9.252;2023-02-26T17:34:30;1.00;54.00
70734;DHT22;58320;48.804;9.252;2023-02-26T17:36:56;1.00;53.90
70734;DHT22;58320;48.804;9.252;2023-02-26T17:39:24;1.00;53.90
70734;DHT22;58320;48.804;9.252;2023-02-26T17:41:50;1.00;53.80
70734;DHT22;58320;48.804;9.252;2023-02-26T17:44:16;1.00;54.30
70734;DHT22;58320;48.804;9.252;2023-02-26T17:46:42;1.00;53.90
70734;DHT22;58320;48.804;9.252;2023-02-26T17:49:09;1.00;54.20
70734;DHT22;58320;48.804;9.252;2023-02-26T17:51:35;0.90;54.50
70734;DHT22;58320;48.804;9.252;2023-02-26T17:54:01;0.90;54.00
70734;DHT22;58320;48.804;9.252;2023-02-26T17:56:30;0.90;54.30
70734;DHT22;58320;48.804;9.252;2023-02-26T17:58:57;0.80;54.40
70734;DHT22;58320;48.804;9.252;2023-02-26T18:01:23;0.70;54.70
70734;DHT22;58320;48.804;9.252;2023-02-26T18:03:53;0.60;55.60
70734;DHT22;58320;48.804;9.252;2023-02-26T18:06:20;0.50;56.80
70734;DHT22;58320;48.804;9.252;2023-02-26T18:08:46;0.40;57.20
70734;DHT22;58320;48.804;9.252;2023-02-26T18:11:14;0.30;58.40
70734;DHT22;58320;48.804;9.252;2023-02-26T18:13:41;0.20;58.30
70734;DHT22;58320;48.804;9.252;2023-02-26T18:16:29;0.20;58.00
70734;DHT22;58320;48.804;9.252;2023-02-26T18:18:58;0.20;57.70
70734;DHT22;58320;48.804;9.252;2023-02-26T18:21:25;0.10;57.80
70734;DHT22;58320;48.804;9.252;2023-02-26T18:23:51;0.10;58.10
70734;DHT22;58320;48.804;9.252;2023-02-26T18:26:21;0.10;58.30
70734;DHT22;58320;48.804;9.252;2023-02-26T18:28:49;0.00;58.10
70734;DHT22;58320;48.804;9.252;2023-02-26T18:31:16;0.00;58.00
70734;DHT22;58320;48.804;9.252;2023-02-26T18:33:42;0.00;58.50
70734;DHT22;58320;48.804;9.252;2023-02-26T18:36:26;0.00;58.40
70734;DHT22;58320;48.804;9.252;2023-02-26T18:39:00;-0.10;58.40
70734;DHT22;58320;48.804;9.252;2023-02-26T18:41:28;-0.10;58.10
70734;DHT22;58320;48.804;9.252;2023-02-26T18:43:54;0.00;57.90
70734;DHT22;58320;48.804;9.252;2023-02-26T18:46:20;0.00;58.10
70734;DHT22;58320;48.804;9.252;2023-02-26T18:48:46;0.00;57.60
70734;DHT22;58320;48.804;9.252;2023-02-26T18:51:12;0.00;57.60
70734;DHT22;58320;48.804;9.252;2023-02-26T18:53:38;0.00;57.90
70734;DHT22;58320;48.804;9.252;2023-02-26T18:56:04;0.00;57.70
70734;DHT22;58320;48.804;9.252;2023-02-26T18:58:30;0.00;58.00
70734;DHT22;58320;48.804;9.252;2023-02-26T19:00:56;-0.10;58.20
70734;DHT22;58320;48.804;9.252;2023-02-26T19:03:23;-0.10;58.50
70734;DHT22;58320;48.804;9.252;2023-02-26T19:06:01;-0.10;58.70
70734;DHT22;58320;48.804;9.252;2023-02-26T19:08:28;-0.10;59.10
70734;DHT22;58320;48.804;9.252;2023-02-26T19:10:55;-0.20;59.00
70734;DHT22;58320;48.804;9.252;2023-02-26T19:13:22;-0.20;59.20
70734;DHT22;58320;48.804;9.252;2023-02-26T19:15:49;-0.20;59.00
70734;DHT22;58320;48.804;9.252;2023-02-26T19:18:15;-0.20;59.10
70734;DHT22;58320;48.804;9.252;2023-02-26T19:20:41;-0.30;59.20
70734;DHT22;58320;48.804;9.252;2023-02-26T19:23:07;-0.30;59.60
70734;DHT22;58320;48.804;9.252;2023-02-26T19:25:34;-0.40;59.80
70734;DHT22;58320;48.804;9.252;2023-02-26T19:28:01;-0.40;60.30
70734;DHT22;58320;48.804;9.252;2023-02-26T19:30:27;-0.50;60.30
70734;DHT22;58320;48.804;9.252;2023-02-26T19:32:53;-0.50;61.00
70734;DHT22;58320;48.804;9.252;2023-02-26T19:35:20;-0.50;61.00
70734;DHT22;58320;48.804;9.252;2023-02-26T19:37:47;-0.60;60.90
70734;DHT22;58320;48.804;9.252;2023-02-26T19:40:14;-0.50;60.00
70734;DHT22;58320;48.804;9.252;2023-02-26T19:42:42;-0.40;60.10
70734;DHT22;58320;48.804;9.252;2023-02-26T19:45:08;-0.40;60.30
70734;DHT22;58320;48.804;9.252;2023-02-26T19:47:34;-0.40;60.20
70734;DHT22;58320;48.804;9.252;2023-02-26T19:50:00;-0.50;60.50
70734;DHT22;58320;48.804;9.252;2023-02-26T19:52:26;-0.50;60.60
70734;DHT22;58320;48.804;9.252;2023-02-26T19:54:56;-0.50;61.00
70734;DHT22;58320;48.804;9.252;2023-02-26T19:57:22;-0.50;61.10
70734;DHT22;58320;48.804;9.252;2023-02-26T19:59:48;-0.60;61.40
70734;DHT22;58320;48.804;9.252;2023-02-26T20:02:14;-0.60;61.80
70734;DHT22;58320;48.804;9.252;2023-02-26T20:04:40;-0.60;61.60
70734;DHT22;58320;48.804;9.252;2023-02-26T20:07:06;-0.60;61.90
70734;DHT22;58320;48.804;9.252;2023-02-26T20:09:32;-0.60;61.90
70734;DHT22;58320;48.804;9.252;2023-02-26T20:11:58;-0.60;62.00
70734;DHT22;58320;48.804;9.252;2023-02-26T20:14:24;-0.60;61.90
70734;DHT22;58320;48.804;9.252;2023-02-26T20:16:50;-0.50;61.70
70734;DHT22;58320;48.804;9.252;2023-02-26T20:19:16;-0.50;61.60
70734;DHT22;58320;48.804;9.252;2023-02-26T20:21:42;-0.50;61.40
70734;DHT22;58320;48.804;9.252;2023-02-26T20:24:08;-0.50;61.90
70734;DHT22;58320;48.804;9.252;2023-02-26T20:26:34;-0.60;61.50
70734;DHT22;58320;48.804;9.252;2023-02-26T20:29:01;-0.60;62.00
70734;DHT22;58320;48.804;9.252;2023-02-26T20:31:26;-0.70;62.00
70734;DHT22;58320;48.804;9.252;2023-02-26T20:33:54;-0.70;62.00
70734;DHT22;58320;48.804;9.252;2023-02-26T20:36:20;-0.80;62.40
70734;DHT22;58320;48.804;9.252;2023-02-26T20:38:47;-0.80;62.40
70734;DHT22;58320;48.804;9.252;2023-02-26T20:41:13;-0.80;62.80
70734;DHT22;58320;48.804;9.252;2023-02-26T20:43:39;-0.80;63.10
70734;DHT22;58320;48.804;9.252;2023-02-26T20:46:05;-0.90;63.10
70734;DHT22;58320;48.804;9.252;2023-02-26T20:48:31;-0.90;63.30
70734;DHT22;58320;48.804;9.252;2023-02-26T20:50:58;-1.00;63.60
70734;DHT22;58320;48.804;9.252;2023-02-26T20:53:26;-1.00;63.90
70734;DHT22;58320;48.804;9.252;2023-02-26T20:55:53;-1.00;64.00
70734;DHT22;58320;48.804;9.252;2023-02-26T20:58:19;-1.00;64.10
70734;DHT22;58320;48.804;9.252;2023-02-26T21:00:45;-1.10;64.20
70734;DHT22;58320;48.804;9.252;2023-02-26T21:03:10;-1.10;64.10
70734;DHT22;58320;48.804;9.252;2023-02-26T21:05:36;-1.10;64.20
70734;DHT22;58320;48.804;9.252;2023-02-26T21:08:03;-1.10;64.40
70734;DHT22;58320;48.804;9.252;2023-02-26T21:10:30;-1.10;64.50
70734;DHT22;58320;48.804;9.252;2023-02-26T21:12:56;-1.10;64.60
70734;DHT22;58320;48.804;9.252;2023-02-26T21:15:22;-1.20;65.00
70734;DHT22;58320;48.804;9.252;2023-02-26T21:17:48;-1.30;65.20
70734;DHT22;58320;48.804;9.252;2023-02-26T21:20:14;-1.30;65.50
70734;DHT22;58320;48.804;9.252;2023-02-26T21:22:43;-1.30;65.60
70734;DHT22;58320;48.804;9.252;2023-02-26T21:25:10;-1.30;65.80
70734;DHT22;58320;48.804;9.252;2023-02-26T21:27:36;-1.40;65.90
70734;DHT22;58320;48.804;9.252;2023-02-26T21:30:07;-1.40;66.10
70734;DHT22;58320;48.804;9.252;2023-02-26T21:32:34;-1.40;66.30
70734;DHT22;58320;48.804;9.252;2023-02-26T21:35:00;-1.40;66.50
70734;DHT22;58320;48.804;9.252;2023-02-26T21:37:26;-1.40;66.70
70734;DHT22;58320;48.804;9.252;2023-02-26T21:39:53;-1.40;66.50
70734;DHT22;58320;48.804;9.252;2023-02-26T21:42:19;-1.40;66.70
70734;DHT22;58320;48.804;9.252;2023-02-26T21:44:46;-1.40;66.50
70734;DHT22;58320;48.804;9.252;2023-02-26T21:47:12;-1.40;66.70
70734;DHT22;58320;48.804;9.252;2023-02-26T21:49:38;-1.50;67.00
70734;DHT22;58320;48.804;9.252;2023-02-26T21:52:05;-1.50;67.10
70734;DHT22;58320;48.804;9.252;2023-02-26T21:54:31;-1.50;67.40
70734;DHT22;58320;48.804;9.252;2023-02-26T21:56:57;-1.50;67.40
70734;DHT22;58320;48.804;9.252;2023-02-26T21:59:23;-1.50;67.40
70734;DHT22;58320;48.804;9.252;2023-02-26T22:01:50;-1.40;66.70
70734;DHT22;58320;48.804;9.252;2023-02-26T22:04:17;-1.40;66.80
70734;DHT22;58320;48.804;9.252;2023-02-26T22:06:43;-1.40;66.60
70734;DHT22;58320;48.804;9.252;2023-02-26T22:09:09;-1.30;66.50
70734;DHT22;58320;48.804;9.252;2023-02-26T22:11:35;-1.30;66.40
70734;DHT22;58320;48.804;9.252;2023-02-26T22:14:01;-1.30;66.50
70734;DHT22;58320;48.804;9.252;2023-02-26T22:16:26;-1.30;66.20
70734;DHT22;58320;48.804;9.252;2023-02-26T22:18:52;-1.30;66.20
70734;DHT22;58320;48.804;9.252;2023-02-26T22:21:18;-1.30;65.90
70734;DHT22;58320;48.804;9.252;2023-02-26T22:23:44;-1.30;66.30
70734;DHT22;58320;48.804;9.252;2023-02-26T22:26:09;-1.30;66.30
70734;DHT22;58320;48.804;9.252;2023-02-26T22:28:35;-1.40;66.20
70734;DHT22;58320;48.804;9.252;2023-02-26T22:31:01;-1.40;66.70
70734;DHT22;58320;48.804;9.252;2023-02-26T22:33:27;-1.40;67.00
70734;DHT22;58320;48.804;9.252;2023-02-26T22:35:57;-1.50;67.40
70734;DHT22;58320;48.804;9.252;2023-02-26T22:38:24;-1.50;67.50
70734;DHT22;58320;48.804;9.252;2023-02-26T22:40:50;-1.50;67.10
70734;DHT22;58320;48.804;9.252;2023-02-26T22:43:16;-1.50;67.30
70734;DHT22;58320;48.804;9.252;2023-02-26T22:45:41;-1.50;67.30
70734;DHT22;58320;48.804;9.252;2023-02-26T22:48:07;-1.60;67.50
70734;DHT22;58320;48.804;9.252;2023-02-26T22:50:34;-1.60;67.40
70734;DHT22;58320;48.804;9.252;2023-02-26T22:53:00;-1.60;67.90
70734;DHT22;58320;48.804;9.252;2023-02-26T22:55:26;-1.70;68.00
70734;DHT22;58320;48.804;9.252;2023-02-26T22:57:51;-1.70;68.40
70734;DHT22;58320;48.804;9.252;2023-02-26T23:00:18;-1.70;68.40
70734;DHT22;58320;48.804;9.252;2023-02-26T23:02:45;-1.80;68.90
70734;DHT22;58320;48.804;9.252;2023-02-26T23:05:12;-1.80;69.30
70734;DHT22;58320;48.804;9.252;2023-02-26T23:07:39;-1.80;69.10
70734;DHT22;58320;48.804;9.252;2023-02-26T23:10:09;-1.80;69.50
70734;DHT22;58320;48.804;9.252;2023-02-26T23:12:37;-1.80;69.40
70734;DHT22;58320;48.804;9.252;2023-02-26T23:15:04;-1.90;69.40
70734;DHT22;58320;48.804;9.252;2023-02-26T23:17:31;-1.90;69.50
70734;DHT22;58320;48.804;9.252;2023-02-26T23:19:56;-1.90;69.50
70734;DHT22;58320;48.804;9.252;2023-02-26T23:22:22;-1.90;69.60
70734;DHT22;58320;48.804;9.252;2023-02-26T23:24:48;-1.90;70.10
70734;DHT22;58320;48.804;9.252;2023-02-26T23:27:14;-1.90;70.00
70734;DHT22;58320;48.804;9.252;2023-02-26T23:29:43;-1.90;69.50
70734;DHT22;58320;48.804;9.252;2023-02-26T23:32:13;-1.80;69.60
70734;DHT22;58320;48.804;9.252;2023-02-26T23:34:39;-1.90;69.70
70734;DHT22;58320;48.804;9.252;2023-02-26T23:37:05;-1.90;70.00
70734;DHT22;58320;48.804;9.252;2023-02-26T23:39:31;-1.90;70.40
70734;DHT22;58320;48.804;9.252;2023-02-26T23:41:57;-1.90;70.50
70734;DHT22;58320;48.804;9.252;2023-02-26T23:44:24;-2.00;70.50
70734;DHT22;58320;48.804;9.252;2023-02-26T23:46:50;-2.00;70.90
70734;DHT22;58320;48.804;9.252;2023-02-26T23:49:16;-2.00;70.80
70734;DHT22;58320;48.804;9.252;2023-02-26T23:51:43;-2.10;71.10
70734;DHT22;58320;48.804;9.252;2023-02-26T23:54:09;-2.10;71.40
70734;DHT22;58320;48.804;9.252;2023-02-26T23:56:35;-2.00;71.00
70734;DHT22;58320;48.804;9.252;2023-02-26T23:59:01;-2.10;71.10
